sensor_id;sensor_type;location;lat;lon;timestamp;pressure;altitude;pressure_sealevel;temperature;humidity
79378;BME280;68959;53.132;17.984;2023-07-29T00:01:54;100365.73;;;14.78;81.21
79378;BME280;68959;53.132;17.984;2023-07-29T00:04:20;100366.54;;;14.74;81.40
79378;BME280;68959;53.132;17.984;2023-07-29T00:06:47;100367.06;;;14.70;81.56
79378;BME280;68959;53.132;17.984;2023-07-29T00:09:14;100368.89;;;14.67;81.40
79378;BME280;68959;53.132;17.984;2023-07-29T00:11:40;100371.64;;;14.65;81.70
79378;BME280;68959;53.132;17.984;2023-07-29T00:14:07;100373.70;;;14.64;81.87
79378;BME280;68959;53.132;17.984;2023-07-29T00:16:33;100373.15;;;14.63;81.88
79378;BME280;68959;53.132;17.984;2023-07-29T00:19:00;100372.92;;;14.60;82.03
79378;BME280;68959;53.132;17.984;2023-07-29T00:21:26;100371.74;;;14.58;81.96
79378;BME280;68959;53.132;17.984;2023-07-29T00:23:53;100370.20;;;14.54;82.03
79378;BME280;68959;53.132;17.984;2023-07-29T00:26:20;100374.60;;;14.53;82.06
79378;BME280;68959;53.132;17.984;2023-07-29T00:28:48;100375.92;;;14.51;82.10
79378;BME280;68959;53.132;17.984;2023-07-29T00:31:14;100374.59;;;14.48;82.08
79378;BME280;68959;53.132;17.984;2023-07-29T00:33:41;100373.16;;;14.45;82.22
79378;BME280;68959;53.132;17.984;2023-07-29T00:36:07;100377.07;;;14.41;82.18
79378;BME280;68959;53.132;17.984;2023-07-29T00:38:34;100376.81;;;14.39;82.52
79378;BME280;68959;53.132;17.984;2023-07-29T00:41:02;100376.70;;;14.36;82.58
79378;BME280;68959;53.132;17.984;2023-07-29T00:43:29;100377.14;;;14.33;82.74
79378;BME280;68959;53.132;17.984;2023-07-29T00:45:56;100375.30;;;14.33;82.48
79378;BME280;68959;53.132;17.984;2023-07-29T00:48:24;100378.14;;;14.34;82.18
79378;BME280;68959;53.132;17.984;2023-07-29T00:50:51;100386.13;;;14.35;82.49
79378;BME280;68959;53.132;17.984;2023-07-29T00:53:18;100378.34;;;14.34;82.84
79378;BME280;68959;53.132;17.984;2023-07-29T00:55:45;100383.73;;;14.34;82.76
79378;BME280;68959;53.132;17.984;2023-07-29T00:58:12;100391.02;;;14.29;82.90
79378;BME280;68959;53.132;17.984;2023-07-29T01:00:39;100391.11;;;14.24;82.60
79378;BME280;68959;53.132;17.984;2023-07-29T01:03:06;100387.36;;;14.23;82.85
79378;BME280;68959;53.132;17.984;2023-07-29T01:05:45;100387.52;;;14.20;82.62
79378;BME280;68959;53.132;17.984;2023-07-29T01:10:58;100386.41;;;14.16;82.87
79378;BME280;68959;53.132;17.984;2023-07-29T01:13:48;100384.84;;;14.16;82.94
79378;BME280;68959;53.132;17.984;2023-07-29T01:16:21;100382.10;;;14.18;82.91
79378;BME280;68959;53.132;17.984;2023-07-29T01:18:53;100383.38;;;14.15;83.02
79378;BME280;68959;53.132;17.984;2023-07-29T01:21:22;100377.73;;;14.10;82.99
79378;BME280;68959;53.132;17.984;2023-07-29T01:23:52;100374.50;;;14.07;82.84
79378;BME280;68959;53.132;17.984;2023-07-29T01:26:19;100373.57;;;14.03;82.97
79378;BME280;68959;53.132;17.984;2023-07-29T01:28:46;100371.30;;;14.02;83.03
79378;BME280;68959;53.132;17.984;2023-07-29T01:31:34;100368.67;;;14.00;83.09
79378;BME280;68959;53.132;17.984;2023-07-29T01:34:17;100364.39;;;13.97;83.29
79378;BME280;68959;53.132;17.984;2023-07-29T01:36:45;100365.52;;;13.95;83.50
79378;BME280;68959;53.132;17.984;2023-07-29T01:39:14;100364.02;;;13.92;83.19
79378;BME280;68959;53.132;17.984;2023-07-29T01:41:43;100360.29;;;13.86;83.59
79378;BME280;68959;53.132;17.984;2023-07-29T01:44:11;100360.57;;;13.81;84.04
79378;BME280;68959;53.132;17.984;2023-07-29T01:46:38;100363.67;;;13.79;83.48
79378;BME280;68959;53.132;17.984;2023-07-29T01:49:05;100366.42;;;13.77;83.64
79378;BME280;68959;53.132;17.984;2023-07-29T01:51:31;100365.36;;;13.74;83.68
79378;BME280;68959;53.132;17.984;2023-07-29T01:53:58;100363.08;;;13.71;83.42
79378;BME280;68959;53.132;17.984;2023-07-29T01:56:26;100369.30;;;13.67;83.96
79378;BME280;68959;53.132;17.984;2023-07-29T01:58:55;100375.84;;;13.61;83.88
79378;BME280;68959;53.132;17.984;2023-07-29T02:01:22;100378.39;;;13.58;83.92
79378;BME280;68959;53.132;17.984;2023-07-29T02:03:49;100382.88;;;13.55;84.00
79378;BME280;68959;53.132;17.984;2023-07-29T02:06:21;100384.36;;;13.52;83.66
79378;BME280;68959;53.132;17.984;2023-07-29T02:08:48;100385.90;;;13.49;83.82
79378;BME280;68959;53.132;17.984;2023-07-29T02:11:15;100389.95;;;13.46;83.97
79378;BME280;68959;53.132;17.984;2023-07-29T02:13:42;100389.64;;;13.44;83.87
79378;BME280;68959;53.132;17.984;2023-07-29T02:16:09;100386.56;;;13.41;83.85
79378;BME280;68959;53.132;17.984;2023-07-29T02:18:35;100385.52;;;13.41;83.78
79378;BME280;68959;53.132;17.984;2023-07-29T02:21:02;100380.91;;;13.40;83.98
79378;BME280;68959;53.132;17.984;2023-07-29T02:23:29;100386.33;;;13.38;83.71
79378;BME280;68959;53.132;17.984;2023-07-29T02:25:56;100387.15;;;13.35;83.19
79378;BME280;68959;53.132;17.984;2023-07-29T02:28:23;100390.09;;;13.31;83.48
79378;BME280;68959;53.132;17.984;2023-07-29T02:31:09;100391.30;;;13.28;83.83
79378;BME280;68959;53.132;17.984;2023-07-29T02:33:37;100391.69;;;13.23;83.93
79378;BME280;68959;53.132;17.984;2023-07-29T02:36:04;100389.70;;;13.19;83.90
79378;BME280;68959;53.132;17.984;2023-07-29T02:38:31;100392.96;;;13.15;83.66
79378;BME280;68959;53.132;17.984;2023-07-29T02:40:58;100392.17;;;13.12;83.98
79378;BME280;68959;53.132;17.984;2023-07-29T02:43:24;100393.98;;;13.07;83.83
79378;BME280;68959;53.132;17.984;2023-07-29T02:45:51;100396.01;;;13.04;84.17
79378;BME280;68959;53.132;17.984;2023-07-29T02:48:18;100395.06;;;13.00;84.09
79378;BME280;68959;53.132;17.984;2023-07-29T02:50:44;100401.43;;;12.96;84.08
79378;BME280;68959;53.132;17.984;2023-07-29T02:53:11;100400.59;;;12.93;84.13
79378;BME280;68959;53.132;17.984;2023-07-29T02:55:40;100401.77;;;12.90;84.22
79378;BME280;68959;53.132;17.984;2023-07-29T02:58:07;100407.74;;;12.87;84.27
79378;BME280;68959;53.132;17.984;2023-07-29T03:00:34;100409.13;;;12.83;83.90
79378;BME280;68959;53.132;17.984;2023-07-29T03:03:02;100412.02;;;12.82;84.05
79378;BME280;68959;53.132;17.984;2023-07-29T03:05:29;100409.55;;;12.80;84.23
79378;BME280;68959;53.132;17.984;2023-07-29T03:07:57;100409.00;;;12.80;83.81
79378;BME280;68959;53.132;17.984;2023-07-29T03:10:24;100413.45;;;12.80;84.32
79378;BME280;68959;53.132;17.984;2023-07-29T03:12:50;100415.66;;;12.79;84.47
79378;BME280;68959;53.132;17.984;2023-07-29T03:15:17;100419.11;;;12.78;84.23
79378;BME280;68959;53.132;17.984;2023-07-29T03:17:44;100418.48;;;12.81;84.25
79378;BME280;68959;53.132;17.984;2023-07-29T03:20:10;100421.36;;;12.87;84.00
79378;BME280;68959;53.132;17.984;2023-07-29T03:22:37;100419.53;;;12.90;83.91
79378;BME280;68959;53.132;17.984;2023-07-29T03:25:04;100414.02;;;12.91;84.20
79378;BME280;68959;53.132;17.984;2023-07-29T03:27:32;100413.84;;;12.94;84.15
79378;BME280;68959;53.132;17.984;2023-07-29T03:29:59;100410.95;;;12.99;84.30
79378;BME280;68959;53.132;17.984;2023-07-29T03:32:27;100414.03;;;13.01;84.25
79378;BME280;68959;53.132;17.984;2023-07-29T03:34:53;100412.98;;;13.00;83.91
79378;BME280;68959;53.132;17.984;2023-07-29T03:37:20;100408.23;;;13.04;84.06
79378;BME280;68959;53.132;17.984;2023-07-29T03:39:47;100407.75;;;13.06;83.81
79378;BME280;68959;53.132;17.984;2023-07-29T03:42:14;100408.29;;;13.11;84.00
79378;BME280;68959;53.132;17.984;2023-07-29T03:44:41;100407.65;;;13.13;83.70
79378;BME280;68959;53.132;17.984;2023-07-29T03:47:07;100410.52;;;13.18;83.51
79378;BME280;68959;53.132;17.984;2023-07-29T03:49:34;100411.31;;;13.22;83.40
79378;BME280;68959;53.132;17.984;2023-07-29T03:52:01;100412.38;;;13.25;83.56
79378;BME280;68959;53.132;17.984;2023-07-29T03:54:27;100412.20;;;13.30;83.65
79378;BME280;68959;53.132;17.984;2023-07-29T03:56:54;100408.63;;;13.36;83.33
79378;BME280;68959;53.132;17.984;2023-07-29T03:59:21;100415.58;;;13.45;83.26
79378;BME280;68959;53.132;17.984;2023-07-29T04:01:49;100416.04;;;13.55;83.54
79378;BME280;68959;53.132;17.984;2023-07-29T04:04:16;100423.73;;;13.61;83.36
79378;BME280;68959;53.132;17.984;2023-07-29T04:06:44;100430.40;;;13.64;82.95
79378;BME280;68959;53.132;17.984;2023-07-29T04:09:10;100431.77;;;13.68;82.66
79378;BME280;68959;53.132;17.984;2023-07-29T04:11:37;100433.43;;;13.70;82.25
79378;BME280;68959;53.132;17.984;2023-07-29T04:14:04;100436.06;;;13.73;82.47
79378;BME280;68959;53.132;17.984;2023-07-29T04:16:30;100437.58;;;13.79;82.58
79378;BME280;68959;53.132;17.984;2023-07-29T04:18:57;100438.44;;;13.85;82.46
79378;BME280;68959;53.132;17.984;2023-07-29T04:21:23;100443.25;;;13.90;82.77
79378;BME280;68959;53.132;17.984;2023-07-29T04:23:50;100445.02;;;13.95;82.20
79378;BME280;68959;53.132;17.984;2023-07-29T04:26:16;100446.43;;;14.00;82.47
79378;BME280;68959;53.132;17.984;2023-07-29T04:28:43;100444.31;;;14.02;82.10
79378;BME280;68959;53.132;17.984;2023-07-29T04:31:10;100441.13;;;14.02;82.29
79378;BME280;68959;53.132;17.984;2023-07-29T04:33:36;100442.41;;;14.05;81.98
79378;BME280;68959;53.132;17.984;2023-07-29T04:36:04;100444.63;;;14.09;82.06
79378;BME280;68959;53.132;17.984;2023-07-29T04:38:32;100446.44;;;14.18;82.05
79378;BME280;68959;53.132;17.984;2023-07-29T04:40:59;100453.48;;;14.26;82.16
79378;BME280;68959;53.132;17.984;2023-07-29T04:43:30;100451.89;;;14.33;82.20
79378;BME280;68959;53.132;17.984;2023-07-29T04:45:57;100449.38;;;14.34;82.28
79378;BME280;68959;53.132;17.984;2023-07-29T04:48:24;100451.27;;;14.41;82.24
79378;BME280;68959;53.132;17.984;2023-07-29T04:50:51;100455.67;;;14.47;82.07
79378;BME280;68959;53.132;17.984;2023-07-29T04:53:17;100454.20;;;14.58;82.11
79378;BME280;68959;53.132;17.984;2023-07-29T04:55:44;100454.02;;;14.71;81.98
79378;BME280;68959;53.132;17.984;2023-07-29T04:58:10;100452.21;;;14.85;81.65
79378;BME280;68959;53.132;17.984;2023-07-29T05:00:37;100456.37;;;15.01;81.38
79378;BME280;68959;53.132;17.984;2023-07-29T05:03:04;100455.56;;;15.13;80.78
79378;BME280;68959;53.132;17.984;2023-07-29T05:05:30;100458.43;;;15.26;80.61
79378;BME280;68959;53.132;17.984;2023-07-29T05:07:57;100465.79;;;15.34;80.26
79378;BME280;68959;53.132;17.984;2023-07-29T05:10:24;100467.00;;;15.37;80.29
79378;BME280;68959;53.132;17.984;2023-07-29T05:12:51;100460.82;;;15.45;80.40
79378;BME280;68959;53.132;17.984;2023-07-29T05:15:17;100461.33;;;15.59;80.09
79378;BME280;68959;53.132;17.984;2023-07-29T05:17:45;100461.59;;;15.73;79.85
79378;BME280;68959;53.132;17.984;2023-07-29T05:20:11;100457.13;;;15.88;79.65
79378;BME280;68959;53.132;17.984;2023-07-29T05:22:38;100456.06;;;16.03;79.15
79378;BME280;68959;53.132;17.984;2023-07-29T05:25:06;100453.70;;;16.11;78.78
79378;BME280;68959;53.132;17.984;2023-07-29T05:27:33;100458.67;;;16.17;78.76
79378;BME280;68959;53.132;17.984;2023-07-29T05:29:59;100458.08;;;16.28;78.82
79378;BME280;68959;53.132;17.984;2023-07-29T05:32:26;100452.85;;;16.41;78.68
79378;BME280;68959;53.132;17.984;2023-07-29T05:34:52;100453.20;;;16.54;78.38
79378;BME280;68959;53.132;17.984;2023-07-29T05:37:20;100448.95;;;16.70;78.11
79378;BME280;68959;53.132;17.984;2023-07-29T05:39:47;100445.60;;;16.82;77.57
79378;BME280;68959;53.132;17.984;2023-07-29T05:42:14;100449.54;;;16.92;77.34
79378;BME280;68959;53.132;17.984;2023-07-29T05:44:41;100450.99;;;17.02;77.00
79378;BME280;68959;53.132;17.984;2023-07-29T05:47:07;100450.47;;;17.07;76.58
79378;BME280;68959;53.132;17.984;2023-07-29T05:49:34;100449.33;;;17.12;76.36
79378;BME280;68959;53.132;17.984;2023-07-29T05:52:01;100448.14;;;17.22;76.21
79378;BME280;68959;53.132;17.984;2023-07-29T05:54:28;100447.40;;;17.36;76.00
79378;BME280;68959;53.132;17.984;2023-07-29T05:56:54;100445.48;;;17.48;75.54
79378;BME280;68959;53.132;17.984;2023-07-29T05:59:21;100443.92;;;17.59;75.12
79378;BME280;68959;53.132;17.984;2023-07-29T06:01:49;100443.55;;;17.74;75.51
79378;BME280;68959;53.132;17.984;2023-07-29T06:04:16;100446.80;;;17.95;75.39
79378;BME280;68959;53.132;17.984;2023-07-29T06:06:43;100444.55;;;18.15;74.47
79378;BME280;68959;53.132;17.984;2023-07-29T06:09:09;100448.40;;;18.29;73.63
79378;BME280;68959;53.132;17.984;2023-07-29T06:11:36;100449.67;;;18.38;73.52
79378;BME280;68959;53.132;17.984;2023-07-29T06:14:02;100449.56;;;18.52;73.28
79378;BME280;68959;53.132;17.984;2023-07-29T06:16:29;100448.72;;;18.67;72.53
79378;BME280;68959;53.132;17.984;2023-07-29T06:18:56;100446.14;;;18.81;72.59
79378;BME280;68959;53.132;17.984;2023-07-29T06:21:23;100446.14;;;18.96;72.24
79378;BME280;68959;53.132;17.984;2023-07-29T06:23:50;100449.66;;;19.11;71.64
79378;BME280;68959;53.132;17.984;2023-07-29T06:26:16;100442.41;;;19.25;71.38
79378;BME280;68959;53.132;17.984;2023-07-29T06:28:43;100443.63;;;19.32;69.94
79378;BME280;68959;53.132;17.984;2023-07-29T06:31:10;100447.02;;;19.35;69.39
79378;BME280;68959;53.132;17.984;2023-07-29T06:33:36;100443.64;;;19.36;69.26
79378;BME280;68959;53.132;17.984;2023-07-29T06:36:03;100440.87;;;19.37;67.86
79378;BME280;68959;53.132;17.984;2023-07-29T06:38:31;100444.67;;;19.39;68.09
79378;BME280;68959;53.132;17.984;2023-07-29T06:40:57;100440.42;;;19.50;69.21
79378;BME280;68959;53.132;17.984;2023-07-29T06:43:24;100441.22;;;19.65;68.42
79378;BME280;68959;53.132;17.984;2023-07-29T06:45:50;100440.26;;;19.76;68.75
79378;BME280;68959;53.132;17.984;2023-07-29T06:48:18;100445.45;;;19.88;68.66
79378;BME280;68959;53.132;17.984;2023-07-29T06:50:46;100445.83;;;20.01;68.13
79378;BME280;68959;53.132;17.984;2023-07-29T06:53:13;100450.61;;;20.19;67.86
79378;BME280;68959;53.132;17.984;2023-07-29T06:55:39;100452.80;;;20.50;66.32
79378;BME280;68959;53.132;17.984;2023-07-29T06:58:06;100449.31;;;20.87;65.09
79378;BME280;68959;53.132;17.984;2023-07-29T07:00:33;100442.38;;;21.20;64.56
79378;BME280;68959;53.132;17.984;2023-07-29T07:02:59;100438.14;;;21.56;63.35
79378;BME280;68959;53.132;17.984;2023-07-29T07:05:26;100433.14;;;21.98;62.78
79378;BME280;68959;53.132;17.984;2023-07-29T07:07:53;100425.61;;;22.33;62.26
79378;BME280;68959;53.132;17.984;2023-07-29T07:10:20;100421.20;;;22.72;60.98
79378;BME280;68959;53.132;17.984;2023-07-29T07:12:46;100418.78;;;23.08;59.84
79378;BME280;68959;53.132;17.984;2023-07-29T07:15:13;100419.92;;;23.33;57.37
79378;BME280;68959;53.132;17.984;2023-07-29T07:17:39;100418.56;;;23.42;55.91
79378;BME280;68959;53.132;17.984;2023-07-29T07:20:07;100419.51;;;23.60;57.16
79378;BME280;68959;53.132;17.984;2023-07-29T07:22:33;100420.83;;;23.92;56.92
79378;BME280;68959;53.132;17.984;2023-07-29T07:25:00;100414.38;;;24.20;54.40
79378;BME280;68959;53.132;17.984;2023-07-29T07:27:27;100423.68;;;24.36;55.03
79378;BME280;68959;53.132;17.984;2023-07-29T07:29:53;100420.13;;;24.68;55.13
79378;BME280;68959;53.132;17.984;2023-07-29T07:32:20;100416.38;;;24.98;54.15
79378;BME280;68959;53.132;17.984;2023-07-29T07:34:46;100416.70;;;25.29;52.98
79378;BME280;68959;53.132;17.984;2023-07-29T07:37:13;100415.94;;;25.59;52.14
79378;BME280;68959;53.132;17.984;2023-07-29T07:39:39;100413.38;;;25.81;50.42
79378;BME280;68959;53.132;17.984;2023-07-29T07:42:06;100410.48;;;25.87;49.29
79378;BME280;68959;53.132;17.984;2023-07-29T07:44:33;100411.03;;;25.99;48.94
79378;BME280;68959;53.132;17.984;2023-07-29T07:46:59;100406.52;;;26.16;49.58
79378;BME280;68959;53.132;17.984;2023-07-29T07:49:26;100404.98;;;26.46;48.78
79378;BME280;68959;53.132;17.984;2023-07-29T07:51:52;100396.23;;;26.67;48.65
79378;BME280;68959;53.132;17.984;2023-07-29T07:54:19;100403.02;;;26.92;46.76
79378;BME280;68959;53.132;17.984;2023-07-29T07:56:46;100400.21;;;26.95;45.76
79378;BME280;68959;53.132;17.984;2023-07-29T07:59:12;100396.06;;;27.02;45.35
79378;BME280;68959;53.132;17.984;2023-07-29T08:01:39;100394.77;;;27.02;44.17
79378;BME280;68959;53.132;17.984;2023-07-29T08:04:06;100402.05;;;27.09;43.45
79378;BME280;68959;53.132;17.984;2023-07-29T08:06:33;100396.30;;;27.17;44.75
79378;BME280;68959;53.132;17.984;2023-07-29T08:08:59;100395.52;;;27.31;41.59
79378;BME280;68959;53.132;17.984;2023-07-29T08:11:26;100391.33;;;27.34;43.82
79378;BME280;68959;53.132;17.984;2023-07-29T08:13:53;100388.46;;;27.69;42.54
79378;BME280;68959;53.132;17.984;2023-07-29T08:16:19;100384.88;;;28.04;43.26
79378;BME280;68959;53.132;17.984;2023-07-29T08:18:46;100380.98;;;28.56;43.33
79378;BME280;68959;53.132;17.984;2023-07-29T08:21:13;100379.39;;;28.95;39.56
79378;BME280;68959;53.132;17.984;2023-07-29T08:23:40;100380.20;;;28.97;39.17
79378;BME280;68959;53.132;17.984;2023-07-29T08:26:07;100378.16;;;28.95;38.22
79378;BME280;68959;53.132;17.984;2023-07-29T08:28:36;100375.36;;;29.31;38.67
79378;BME280;68959;53.132;17.984;2023-07-29T08:31:03;100366.71;;;29.70;38.31
79378;BME280;68959;53.132;17.984;2023-07-29T08:33:31;100361.30;;;30.21;37.76
79378;BME280;68959;53.132;17.984;2023-07-29T08:36:00;100361.08;;;30.56;36.97
79378;BME280;68959;53.132;17.984;2023-07-29T08:38:27;100355.99;;;30.90;36.05
79378;BME280;68959;53.132;17.984;2023-07-29T08:41:10;100357.37;;;31.15;35.07
79378;BME280;68959;53.132;17.984;2023-07-29T08:43:44;100347.79;;;31.50;35.59
79378;BME280;68959;53.132;17.984;2023-07-29T08:46:15;100344.23;;;32.14;35.11
79378;BME280;68959;53.132;17.984;2023-07-29T08:48:43;100340.65;;;32.60;32.46
79378;BME280;68959;53.132;17.984;2023-07-29T08:51:11;100345.16;;;32.53;32.57
79378;BME280;68959;53.132;17.984;2023-07-29T08:53:38;100348.38;;;32.48;32.17
79378;BME280;68959;53.132;17.984;2023-07-29T08:56:06;100343.38;;;32.57;31.90
79378;BME280;68959;53.132;17.984;2023-07-29T08:58:35;100342.55;;;32.58;31.28
79378;BME280;68959;53.132;17.984;2023-07-29T09:01:02;100339.98;;;32.42;31.77
79378;BME280;68959;53.132;17.984;2023-07-29T09:03:28;100338.57;;;32.43;31.48
79378;BME280;68959;53.132;17.984;2023-07-29T09:05:57;100332.02;;;33.00;31.12
79378;BME280;68959;53.132;17.984;2023-07-29T09:08:28;100333.64;;;33.32;29.52
79378;BME280;68959;53.132;17.984;2023-07-29T09:10:57;100340.52;;;32.69;29.14
79378;BME280;68959;53.132;17.984;2023-07-29T09:13:25;100341.77;;;31.84;31.29
79378;BME280;68959;53.132;17.984;2023-07-29T09:15:57;100337.30;;;31.43;31.74
79378;BME280;68959;53.132;17.984;2023-07-29T09:18:26;100333.53;;;30.94;32.53
79378;BME280;68959;53.132;17.984;2023-07-29T09:20:59;100337.77;;;30.39;33.32
79378;BME280;68959;53.132;17.984;2023-07-29T09:23:32;100335.15;;;31.45;31.87
79378;BME280;68959;53.132;17.984;2023-07-29T09:26:05;100336.02;;;31.73;31.99
79378;BME280;68959;53.132;17.984;2023-07-29T09:28:40;100336.88;;;31.60;31.51
79378;BME280;68959;53.132;17.984;2023-07-29T09:31:19;100329.40;;;31.59;31.63
79378;BME280;68959;53.132;17.984;2023-07-29T09:33:46;100334.25;;;30.56;32.85
79378;BME280;68959;53.132;17.984;2023-07-29T09:36:13;100334.09;;;30.01;33.76
79378;BME280;68959;53.132;17.984;2023-07-29T09:38:44;100328.30;;;29.63;34.27
79378;BME280;68959;53.132;17.984;2023-07-29T09:41:15;100326.98;;;29.92;34.28
79378;BME280;68959;53.132;17.984;2023-07-29T09:43:42;100320.35;;;31.30;31.75
79378;BME280;68959;53.132;17.984;2023-07-29T09:46:09;100320.98;;;32.04;30.60
79378;BME280;68959;53.132;17.984;2023-07-29T09:48:37;100323.66;;;32.79;29.23
79378;BME280;68959;53.132;17.984;2023-07-29T09:51:11;100322.02;;;32.07;31.21
79378;BME280;68959;53.132;17.984;2023-07-29T09:53:43;100312.55;;;33.27;30.26
79378;BME280;68959;53.132;17.984;2023-07-29T09:56:15;100309.58;;;35.00;27.56
79378;BME280;68959;53.132;17.984;2023-07-29T09:58:45;100313.85;;;35.24;25.94
79378;BME280;68959;53.132;17.984;2023-07-29T10:01:14;100306.80;;;35.58;25.44
79378;BME280;68959;53.132;17.984;2023-07-29T10:03:41;100299.44;;;36.01;25.18
79378;BME280;68959;53.132;17.984;2023-07-29T10:06:08;100299.88;;;36.20;23.99
79378;BME280;68959;53.132;17.984;2023-07-29T10:08:35;100289.75;;;36.65;23.97
79378;BME280;68959;53.132;17.984;2023-07-29T10:11:02;100284.80;;;36.76;23.32
79378;BME280;68959;53.132;17.984;2023-07-29T10:13:29;100287.14;;;36.49;23.30
79378;BME280;68959;53.132;17.984;2023-07-29T10:15:55;100288.85;;;36.44;23.84
79378;BME280;68959;53.132;17.984;2023-07-29T10:18:23;100294.09;;;36.34;23.23
79378;BME280;68959;53.132;17.984;2023-07-29T10:20:51;100296.61;;;36.27;23.48
79378;BME280;68959;53.132;17.984;2023-07-29T10:23:21;100287.40;;;36.33;23.66
79378;BME280;68959;53.132;17.984;2023-07-29T10:28:29;100294.16;;;36.07;24.04
79378;BME280;68959;53.132;17.984;2023-07-29T10:30:57;100285.67;;;36.77;23.37
79378;BME280;68959;53.132;17.984;2023-07-29T10:33:25;100280.97;;;37.34;22.88
79378;BME280;68959;53.132;17.984;2023-07-29T10:35:53;100281.15;;;36.72;23.51
79378;BME280;68959;53.132;17.984;2023-07-29T10:38:22;100280.77;;;36.10;23.86
79378;BME280;68959;53.132;17.984;2023-07-29T10:40:55;100285.13;;;36.97;23.15
79378;BME280;68959;53.132;17.984;2023-07-29T10:43:28;100284.29;;;37.52;22.59
79378;BME280;68959;53.132;17.984;2023-07-29T10:46:16;100282.06;;;37.08;22.63
79378;BME280;68959;53.132;17.984;2023-07-29T10:48:54;100274.33;;;35.83;24.07
79378;BME280;68959;53.132;17.984;2023-07-29T10:53:52;100265.55;;;36.62;23.49
79378;BME280;68959;53.132;17.984;2023-07-29T10:56:30;100259.61;;;37.51;21.98
79378;BME280;68959;53.132;17.984;2023-07-29T10:59:02;100256.70;;;37.30;22.04
79378;BME280;68959;53.132;17.984;2023-07-29T11:01:30;100250.48;;;37.03;22.52
79378;BME280;68959;53.132;17.984;2023-07-29T11:04:28;100245.96;;;37.33;22.79
79378;BME280;68959;53.132;17.984;2023-07-29T11:17:38;100229.45;;;36.88;23.26
79378;BME280;68959;53.132;17.984;2023-07-29T11:20:07;100224.67;;;38.51;21.49
79378;BME280;68959;53.132;17.984;2023-07-29T11:22:35;100220.66;;;39.63;20.48
79378;BME280;68959;53.132;17.984;2023-07-29T11:25:02;100208.56;;;40.14;20.72
79378;BME280;68959;53.132;17.984;2023-07-29T11:27:29;100207.15;;;40.81;19.92
79378;BME280;68959;53.132;17.984;2023-07-29T11:30:05;100208.15;;;40.76;19.40
79378;BME280;68959;53.132;17.984;2023-07-29T11:32:34;100206.38;;;40.47;19.04
79378;BME280;68959;53.132;17.984;2023-07-29T11:35:06;100212.50;;;39.86;19.43
79378;BME280;68959;53.132;17.984;2023-07-29T11:37:34;100202.75;;;39.50;19.99
79378;BME280;68959;53.132;17.984;2023-07-29T11:40:01;100199.86;;;40.11;19.88
79378;BME280;68959;53.132;17.984;2023-07-29T11:42:31;100195.91;;;39.62;20.07
79378;BME280;68959;53.132;17.984;2023-07-29T11:44:58;100198.67;;;37.96;21.44
79378;BME280;68959;53.132;17.984;2023-07-29T11:47:25;100198.84;;;38.00;21.74
79378;BME280;68959;53.132;17.984;2023-07-29T11:49:52;100200.14;;;38.36;21.47
79378;BME280;68959;53.132;17.984;2023-07-29T11:52:19;100194.65;;;38.89;20.91
79378;BME280;68959;53.132;17.984;2023-07-29T11:54:48;100189.38;;;38.70;21.15
79378;BME280;68959;53.132;17.984;2023-07-29T11:57:16;100190.19;;;37.89;22.08
79378;BME280;68959;53.132;17.984;2023-07-29T11:59:46;100188.86;;;37.20;22.83
79378;BME280;68959;53.132;17.984;2023-07-29T12:02:15;100191.16;;;36.58;23.74
79378;BME280;68959;53.132;17.984;2023-07-29T12:04:43;100189.55;;;35.75;24.73
79378;BME280;68959;53.132;17.984;2023-07-29T12:07:12;100187.59;;;35.22;24.97
79378;BME280;68959;53.132;17.984;2023-07-29T12:09:39;100184.06;;;34.30;26.22
79378;BME280;68959;53.132;17.984;2023-07-29T12:12:07;100173.66;;;34.00;26.90
79378;BME280;68959;53.132;17.984;2023-07-29T12:14:34;100172.55;;;35.39;25.35
79378;BME280;68959;53.132;17.984;2023-07-29T12:17:05;100161.48;;;35.81;24.83
79378;BME280;68959;53.132;17.984;2023-07-29T12:19:33;100163.59;;;35.40;25.35
79378;BME280;68959;53.132;17.984;2023-07-29T12:22:02;100162.90;;;34.35;26.42
79378;BME280;68959;53.132;17.984;2023-07-29T12:24:30;100155.66;;;34.75;26.25
79378;BME280;68959;53.132;17.984;2023-07-29T12:26:58;100152.23;;;35.67;25.50
79378;BME280;68959;53.132;17.984;2023-07-29T12:29:25;100152.33;;;34.89;26.11
79378;BME280;68959;53.132;17.984;2023-07-29T12:32:00;100149.70;;;33.89;27.27
79378;BME280;68959;53.132;17.984;2023-07-29T12:34:28;100146.96;;;33.72;27.39
79378;BME280;68959;53.132;17.984;2023-07-29T12:36:56;100139.78;;;34.06;27.30
79378;BME280;68959;53.132;17.984;2023-07-29T12:39:29;100129.50;;;35.08;26.49
79378;BME280;68959;53.132;17.984;2023-07-29T12:41:57;100121.36;;;35.57;25.68
79378;BME280;68959;53.132;17.984;2023-07-29T12:44:32;100125.89;;;35.57;25.72
79378;BME280;68959;53.132;17.984;2023-07-29T12:47:02;100126.64;;;35.12;26.13
79378;BME280;68959;53.132;17.984;2023-07-29T12:49:31;100123.78;;;34.96;25.96
79378;BME280;68959;53.132;17.984;2023-07-29T12:51:59;100118.44;;;35.54;25.66
79378;BME280;68959;53.132;17.984;2023-07-29T12:54:26;100114.94;;;35.93;24.91
79378;BME280;68959;53.132;17.984;2023-07-29T12:56:52;100113.30;;;36.27;24.90
79378;BME280;68959;53.132;17.984;2023-07-29T12:59:19;100117.20;;;36.16;24.59
79378;BME280;68959;53.132;17.984;2023-07-29T13:01:46;100109.27;;;36.19;24.66
79378;BME280;68959;53.132;17.984;2023-07-29T13:04:12;100106.94;;;36.27;24.54